createdAt,value
2018-03-22T00:01:44.168Z,14.02
2018-03-22T00:04:12.080Z,18.10
2018-03-22T00:06:40.001Z,13.85
2018-03-22T00:09:08.283Z,13.20
2018-03-22T00:11:36.204Z,16.92
2018-03-22T00:14:04.116Z,13.93
2018-03-22T00:16:32.060Z,18.87
2018-03-22T00:18:59.980Z,17.15
2018-03-22T00:21:27.892Z,13.40
2018-03-22T00:23:55.816Z,12.60
2018-03-22T00:26:23.736Z,14.55
2018-03-22T00:28:52.032Z,11.23
2018-03-22T00:31:20.092Z,19.25
2018-03-22T00:33:48.030Z,9.52
2018-03-22T00:36:15.944Z,12.18
2018-03-22T00:38:43.863Z,8.35
2018-03-22T00:41:11.775Z,14.48
2018-03-22T00:43:39.708Z,14.00
2018-03-22T00:46:07.607Z,10.65
2018-03-22T00:48:35.517Z,11.07
2018-03-22T00:51:03.479Z,14.70
2018-03-22T00:53:31.376Z,17.98
2018-03-22T00:55:59.283Z,11.30
2018-03-22T00:58:27.206Z,9.75
2018-03-22T01:00:55.407Z,17.20
2018-03-22T01:03:23.360Z,10.73
2018-03-22T01:05:51.535Z,6.85
2018-03-22T01:08:19.448Z,12.45
2018-03-22T01:10:47.704Z,16.08
2018-03-22T01:13:15.651Z,22.15
2018-03-22T01:15:43.552Z,10.32
2018-03-22T01:18:11.457Z,12.57
2018-03-22T01:20:39.688Z,12.70
2018-03-22T01:23:07.596Z,16.73
2018-03-22T01:25:35.495Z,20.58
2018-03-22T01:28:03.441Z,11.10
2018-03-22T01:33:26.072Z,21.80
2018-03-22T01:35:54.252Z,16.70
2018-03-22T01:38:22.144Z,16.75
2018-03-22T01:40:50.040Z,17.80
2018-03-22T01:43:17.949Z,16.67
2018-03-22T01:45:45.892Z,25.37
2018-03-22T01:48:13.814Z,21.60
2018-03-22T01:50:41.815Z,24.75
2018-03-22T01:53:12.575Z,19.45
2018-03-22T01:55:40.484Z,23.30
2018-03-22T01:58:08.396Z,18.30
2018-03-22T02:00:36.315Z,27.67
2018-03-22T02:03:04.251Z,22.05
2018-03-22T02:05:32.199Z,25.83
2018-03-22T02:08:00.113Z,23.10
2018-03-22T02:10:28.042Z,22.95
2018-03-22T02:12:56.375Z,25.02
2018-03-22T02:15:24.247Z,27.60
2018-03-22T02:17:52.182Z,24.92
2018-03-22T02:20:20.093Z,34.97
2018-03-22T02:22:47.998Z,27.60
2018-03-22T02:25:15.913Z,30.62
2018-03-22T02:27:43.830Z,33.60
2018-03-22T02:30:11.768Z,37.35
2018-03-22T02:32:39.665Z,37.90
2018-03-22T02:35:07.574Z,34.65
2018-03-22T02:37:35.480Z,37.15
2018-03-22T02:40:03.406Z,43.25
2018-03-22T02:42:31.332Z,46.97
2018-03-22T02:44:59.266Z,42.78
2018-03-22T02:47:27.240Z,46.00
2018-03-22T02:49:55.151Z,49.72
2018-03-22T02:52:23.060Z,51.60
2018-03-22T02:54:50.971Z,53.53
2018-03-22T02:57:18.896Z,56.37
2018-03-22T02:59:46.872Z,56.55
2018-03-22T03:02:14.801Z,59.28
2018-03-22T03:04:42.751Z,57.40
2018-03-22T03:07:10.652Z,56.45
2018-03-22T03:09:38.597Z,62.83
2018-03-22T03:12:06.632Z,67.32
2018-03-22T03:14:34.599Z,65.85
2018-03-22T03:17:02.512Z,60.63
2018-03-22T03:19:30.432Z,71.95
2018-03-22T03:21:58.351Z,75.70
2018-03-22T03:24:26.331Z,59.47
2018-03-22T03:26:54.308Z,60.78
2018-03-22T03:29:22.215Z,60.15
2018-03-22T03:31:50.112Z,68.65
2018-03-22T03:34:18.053Z,55.05
2018-03-22T03:36:45.969Z,57.03
2018-03-22T03:39:13.905Z,57.65
2018-03-22T03:44:21.959Z,68.30
2018-03-22T03:46:49.859Z,57.17
2018-03-22T03:49:17.776Z,56.58
2018-03-22T03:51:45.675Z,62.35
2018-03-22T03:54:13.584Z,62.45
2018-03-22T03:56:41.516Z,60.15
2018-03-22T03:59:09.439Z,62.50
2018-03-22T04:01:37.609Z,62.60
2018-03-22T04:04:05.529Z,63.05
2018-03-22T04:06:33.440Z,81.87
2018-03-22T04:09:01.379Z,70.30
2018-03-22T04:11:29.292Z,68.80
2018-03-22T04:13:57.244Z,71.30
2018-03-22T04:16:25.418Z,79.25
2018-03-22T04:18:53.323Z,77.57
2018-03-22T04:21:21.267Z,78.68
2018-03-22T04:23:49.184Z,80.05
2018-03-22T04:26:17.100Z,82.68
2018-03-22T04:28:45.013Z,74.25
2018-03-22T04:31:12.922Z,77.90
2018-03-22T04:33:40.831Z,82.20
2018-03-22T04:36:09.055Z,77.05
2018-03-22T04:38:37.019Z,81.22
2018-03-22T04:41:04.959Z,82.12
2018-03-22T04:43:32.894Z,84.93
2018-03-22T04:46:00.802Z,80.05
2018-03-22T04:48:28.712Z,84.97
2018-03-22T04:50:56.687Z,84.13
2018-03-22T04:53:24.660Z,87.05
2018-03-22T04:55:52.574Z,81.37
2018-03-22T04:58:20.522Z,80.28
2018-03-22T05:00:48.436Z,85.05
2018-03-22T05:03:16.385Z,80.97
2018-03-22T05:05:44.288Z,91.50
2018-03-22T05:08:12.202Z,90.95
2018-03-22T05:10:40.484Z,87.50
2018-03-22T05:13:08.404Z,90.03
2018-03-22T05:15:36.320Z,90.90
2018-03-22T05:18:04.468Z,92.65
2018-03-22T05:20:32.371Z,95.00
2018-03-22T05:23:00.280Z,96.37
2018-03-22T05:25:28.223Z,99.62
2018-03-22T05:27:56.122Z,93.45
2018-03-22T05:30:24.049Z,86.65
2018-03-22T05:32:52.351Z,86.45
2018-03-22T05:35:20.307Z,87.60
2018-03-22T05:37:48.300Z,89.03
2018-03-22T05:40:16.384Z,98.43
2018-03-22T05:42:44.585Z,97.10
2018-03-22T05:45:12.516Z,88.90
2018-03-22T05:47:40.474Z,94.10
2018-03-22T05:50:08.395Z,90.78
2018-03-22T05:52:36.319Z,92.65
2018-03-22T05:55:04.341Z,91.90
2018-03-22T05:57:32.259Z,90.43
2018-03-22T06:00:00.182Z,83.07
2018-03-22T06:02:28.442Z,84.72
2018-03-22T06:04:56.359Z,88.03
2018-03-22T06:07:24.271Z,86.53
2018-03-22T06:09:52.184Z,83.72
2018-03-22T06:12:20.139Z,79.68
2018-03-22T06:14:48.031Z,74.50
2018-03-22T06:17:15.956Z,79.70
2018-03-22T06:19:44.215Z,74.80
2018-03-22T06:22:12.121Z,79.65
2018-03-22T06:24:40.080Z,74.87
2018-03-22T06:27:09.181Z,69.47
2018-03-22T06:29:37.104Z,68.87
2018-03-22T06:32:05.053Z,68.60
2018-03-22T06:34:33.255Z,67.03
2018-03-22T06:37:01.339Z,69.35
2018-03-22T06:39:29.252Z,63.83
2018-03-22T06:41:57.191Z,63.00
2018-03-22T06:44:25.113Z,63.80
2018-03-22T06:46:53.231Z,62.70
2018-03-22T06:49:21.193Z,60.80
2018-03-22T06:51:49.132Z,60.38
2018-03-22T06:54:17.114Z,55.83
2018-03-22T06:56:45.091Z,59.38
2018-03-22T06:59:13.083Z,59.65
2018-03-22T07:01:41.058Z,59.17
2018-03-22T07:04:08.992Z,59.13
2018-03-22T07:06:36.914Z,54.63
2018-03-22T07:09:04.812Z,52.45
2018-03-22T07:11:33.310Z,57.65
2018-03-22T07:14:01.249Z,55.33
2018-03-22T07:16:29.145Z,55.75
2018-03-22T07:18:57.078Z,54.58
2018-03-22T07:21:25.083Z,50.22
2018-03-22T07:23:53.021Z,57.45
2018-03-22T07:26:20.951Z,47.58
2018-03-22T07:28:48.895Z,41.60
2018-03-22T07:31:16.799Z,44.90
2018-03-22T07:33:44.760Z,47.20
2018-03-22T07:36:12.727Z,47.17
2018-03-22T07:38:40.678Z,50.00
2018-03-22T07:41:08.596Z,46.45
2018-03-22T07:43:41.428Z,49.47
2018-03-22T07:46:09.716Z,51.95
2018-03-22T07:48:37.640Z,52.13
2018-03-22T07:51:05.863Z,54.65
2018-03-22T07:53:33.775Z,57.67
2018-03-22T07:56:01.723Z,48.40
2018-03-22T07:58:29.633Z,54.13
2018-03-22T08:00:58.482Z,60.08
2018-03-22T08:03:26.437Z,55.08
2018-03-22T08:05:54.387Z,60.58
2018-03-22T08:08:22.291Z,59.15
2018-03-22T08:10:50.233Z,55.78
2018-03-22T08:13:18.160Z,56.03
2018-03-22T08:15:46.131Z,54.22
2018-03-22T08:18:14.023Z,54.03
2018-03-22T08:20:41.973Z,53.93
2018-03-22T08:23:10.186Z,54.72
2018-03-22T08:25:38.092Z,52.55
2018-03-22T08:28:06.175Z,54.45
2018-03-22T08:30:34.079Z,54.33
2018-03-22T08:33:02.148Z,55.47
2018-03-22T08:35:30.095Z,60.63
2018-03-22T08:37:58.007Z,65.15
2018-03-22T08:40:26.296Z,54.53
2018-03-22T08:42:54.196Z,66.15
2018-03-22T08:45:22.093Z,54.77
2018-03-22T08:47:50.018Z,60.33
2018-03-22T08:50:17.918Z,59.03
2018-03-22T08:52:45.891Z,56.97
2018-03-22T08:55:13.847Z,58.00
2018-03-22T08:57:41.755Z,63.60
2018-03-22T09:00:09.717Z,50.25
2018-03-22T09:02:37.655Z,51.55
2018-03-22T09:05:05.609Z,48.80
2018-03-22T09:07:33.555Z,49.88
2018-03-22T09:10:01.449Z,50.20
2018-03-22T09:12:29.387Z,47.13
2018-03-22T09:14:57.321Z,37.75
2018-03-22T09:17:25.222Z,34.97
2018-03-22T09:19:53.204Z,44.25
2018-03-22T09:22:21.125Z,32.93
2018-03-22T09:24:49.691Z,31.47
2018-03-22T09:27:17.780Z,27.40
2018-03-22T09:29:45.704Z,23.30
2018-03-22T09:32:13.627Z,22.90
2018-03-22T09:34:41.538Z,22.17
2018-03-22T09:37:09.498Z,21.90
2018-03-22T09:39:37.404Z,26.47
2018-03-22T09:42:05.339Z,20.27
2018-03-22T09:44:33.243Z,23.90
2018-03-22T09:47:01.146Z,21.43
2018-03-22T09:49:29.055Z,18.30
2018-03-22T09:51:56.957Z,19.90
2018-03-22T09:54:24.878Z,15.70
2018-03-22T09:56:52.824Z,20.10
2018-03-22T09:59:20.751Z,19.33
2018-03-22T10:01:48.670Z,14.30
2018-03-22T10:04:16.594Z,15.40
2018-03-22T10:06:44.495Z,14.27
2018-03-22T10:09:12.444Z,15.03
2018-03-22T10:11:40.346Z,16.77
2018-03-22T10:14:08.260Z,11.33
2018-03-22T10:16:36.216Z,20.97
2018-03-22T10:19:04.111Z,17.10
2018-03-22T10:21:32.016Z,10.83
2018-03-22T10:23:59.951Z,14.10
2018-03-22T10:26:28.051Z,11.23
2018-03-22T10:28:56.019Z,8.10
2018-03-22T10:31:23.933Z,10.67
2018-03-22T10:33:51.841Z,8.37
2018-03-22T10:36:19.759Z,9.03
2018-03-22T10:38:47.681Z,11.50
2018-03-22T10:41:15.609Z,9.03
2018-03-22T10:43:43.860Z,7.90
2018-03-22T10:46:11.784Z,14.43
2018-03-22T10:48:39.683Z,12.80
2018-03-22T10:51:07.783Z,8.23
2018-03-22T10:53:35.743Z,7.17
2018-03-22T10:56:03.668Z,6.27
2018-03-22T10:58:31.651Z,7.23
2018-03-22T11:01:05.587Z,9.67
2018-03-22T11:03:39.601Z,5.77
2018-03-22T11:06:07.528Z,6.20
2018-03-22T11:08:35.779Z,5.43
2018-03-22T11:11:03.679Z,6.20
2018-03-22T11:13:31.587Z,5.00
2018-03-22T11:16:00.200Z,6.03
2018-03-22T11:18:28.172Z,5.50
2018-03-22T11:20:56.073Z,8.93
2018-03-22T11:23:23.971Z,7.67
2018-03-22T11:25:51.920Z,8.97
2018-03-22T11:28:20.256Z,8.93
2018-03-22T11:30:48.163Z,5.50
2018-03-22T11:33:16.084Z,13.73
2018-03-22T11:35:43.987Z,7.70
2018-03-22T11:38:11.883Z,12.53
2018-03-22T11:40:39.779Z,7.80
2018-03-22T11:43:07.684Z,9.33
2018-03-22T11:45:35.583Z,14.73
2018-03-22T11:48:03.669Z,6.83
2018-03-22T11:50:31.576Z,6.80
2018-03-22T11:52:59.475Z,7.37
2018-03-22T11:55:27.433Z,8.27
2018-03-22T11:57:55.333Z,7.60
2018-03-22T12:00:23.259Z,8.27
2018-03-22T12:02:51.249Z,8.00
2018-03-22T12:05:19.175Z,5.23
2018-03-22T12:07:47.094Z,5.43
2018-03-22T12:10:15.052Z,6.00
2018-03-22T12:12:42.987Z,4.60
2018-03-22T12:15:10.890Z,8.20
2018-03-22T12:17:40.147Z,7.63
2018-03-22T12:20:08.121Z,4.43
2018-03-22T12:22:36.055Z,9.60
2018-03-22T12:25:03.968Z,8.70
2018-03-22T12:27:31.889Z,2.97
2018-03-22T12:30:00.123Z,4.90
2018-03-22T12:32:28.092Z,2.90
2018-03-22T12:34:56.004Z,5.53
2018-03-22T12:37:23.972Z,4.40
2018-03-22T12:39:51.908Z,4.17
2018-03-22T12:42:19.845Z,5.40
2018-03-22T12:44:47.810Z,5.20
2018-03-22T12:47:15.687Z,3.67
2018-03-22T12:49:43.615Z,4.20
2018-03-22T12:52:11.538Z,4.97
2018-03-22T12:54:39.436Z,7.60
2018-03-22T12:57:07.339Z,5.63
2018-03-22T12:59:35.265Z,9.57
2018-03-22T13:02:03.171Z,14.93
2018-03-22T13:04:31.076Z,11.77
2018-03-22T13:06:59.254Z,18.20
2018-03-22T13:09:27.171Z,17.63
2018-03-22T13:11:55.187Z,17.80
2018-03-22T13:14:23.118Z,18.97
2018-03-22T13:16:51.052Z,11.77
2018-03-22T13:19:19.000Z,14.87
2018-03-22T13:21:47.307Z,17.10
2018-03-22T13:24:15.221Z,16.03
2018-03-22T13:26:43.157Z,17.33
2018-03-22T13:29:11.118Z,18.70
2018-03-22T13:31:39.242Z,21.10
2018-03-22T13:34:07.147Z,15.60
2018-03-22T13:36:35.251Z,12.73
2018-03-22T13:39:03.177Z,13.90
2018-03-22T13:41:31.075Z,14.63
2018-03-22T13:43:59.038Z,15.20
2018-03-22T13:46:26.947Z,16.00
2018-03-22T13:48:54.839Z,12.30
2018-03-22T13:51:22.739Z,17.90
2018-03-22T13:53:50.686Z,16.20
2018-03-22T13:56:18.673Z,18.40
2018-03-22T13:58:46.624Z,14.60
2018-03-22T14:01:14.520Z,14.57
2018-03-22T14:03:42.427Z,13.83
2018-03-22T14:06:10.375Z,18.80
2018-03-22T14:08:38.283Z,19.37
2018-03-22T14:11:06.287Z,19.30
2018-03-22T14:13:34.233Z,23.00
2018-03-22T14:16:02.168Z,21.93
2018-03-22T14:18:30.077Z,18.07
2018-03-22T14:20:58.028Z,15.87
2018-03-22T14:23:25.954Z,17.20
2018-03-22T14:25:53.856Z,13.70
2018-03-22T14:28:21.806Z,16.63
2018-03-22T14:30:49.744Z,13.97
2018-03-22T14:33:17.987Z,14.07
2018-03-22T14:35:45.911Z,12.93
2018-03-22T14:38:13.843Z,12.80
2018-03-22T14:40:41.780Z,11.77
2018-03-22T14:43:10.047Z,12.00
2018-03-22T14:45:37.996Z,10.37
2018-03-22T14:48:05.940Z,34.13
2018-03-22T14:50:33.863Z,7.43
2018-03-22T14:53:01.788Z,8.37
2018-03-22T14:55:29.708Z,8.70
2018-03-22T14:57:57.708Z,6.73
2018-03-22T15:00:25.632Z,9.07
2018-03-22T15:02:53.546Z,4.00
2018-03-22T15:05:21.476Z,5.40
2018-03-22T15:07:49.395Z,5.00
2018-03-22T15:10:17.296Z,6.40
2018-03-22T15:12:52.238Z,6.90
2018-03-22T15:15:20.157Z,7.60
2018-03-22T15:17:48.103Z,8.30
2018-03-22T15:20:16.217Z,7.20
2018-03-22T15:22:44.200Z,7.20
2018-03-22T15:25:12.112Z,6.83
2018-03-22T15:27:40.046Z,6.67
2018-03-22T15:30:07.954Z,5.50
2018-03-22T15:32:35.848Z,6.97
2018-03-22T15:35:03.962Z,7.53
2018-03-22T15:37:31.864Z,7.23
2018-03-22T15:39:59.825Z,9.20
2018-03-22T15:42:27.815Z,7.57
2018-03-22T15:44:55.720Z,10.50
2018-03-22T15:47:23.643Z,7.27
2018-03-22T15:49:51.644Z,6.13
2018-03-22T15:52:19.712Z,6.93
2018-03-22T15:54:47.618Z,6.13
2018-03-22T15:57:15.560Z,11.33
2018-03-22T15:59:43.500Z,12.03
2018-03-22T16:02:11.386Z,7.30
2018-03-22T16:04:39.329Z,8.00
2018-03-22T16:07:07.222Z,6.87
2018-03-22T16:09:35.135Z,9.00
2018-03-22T16:12:03.061Z,6.43
2018-03-22T16:14:30.987Z,8.10
2018-03-22T16:16:58.895Z,12.73
2018-03-22T16:19:27.016Z,8.10
2018-03-22T16:21:54.891Z,7.57
2018-03-22T16:24:22.792Z,7.10
2018-03-22T16:26:50.747Z,8.30
2018-03-22T16:29:18.670Z,6.73
2018-03-22T16:31:46.571Z,9.23
2018-03-22T16:34:14.476Z,6.90
2018-03-22T16:36:42.514Z,10.00
2018-03-22T16:39:10.378Z,7.57
2018-03-22T16:41:38.293Z,7.47
2018-03-22T16:44:06.212Z,8.63
2018-03-22T16:46:34.279Z,7.03
2018-03-22T16:49:02.259Z,6.90
2018-03-22T16:51:30.295Z,7.60
2018-03-22T16:53:58.559Z,6.53
2018-03-22T16:56:26.510Z,7.67
2018-03-22T16:58:54.437Z,8.73
2018-03-22T17:01:22.380Z,7.10
2018-03-22T17:03:50.288Z,10.00
2018-03-22T17:06:18.196Z,12.40
2018-03-22T17:08:46.254Z,6.83
2018-03-22T17:11:14.167Z,8.07
2018-03-22T17:13:42.108Z,8.90
2018-03-22T17:16:10.044Z,11.13
2018-03-22T17:18:37.967Z,9.37
2018-03-22T17:21:05.883Z,7.87
2018-03-22T17:23:33.810Z,9.60
2018-03-22T17:26:01.719Z,10.70
2018-03-22T17:28:29.659Z,14.37
2018-03-22T17:30:57.620Z,11.40
2018-03-22T17:33:25.556Z,9.43
2018-03-22T17:35:53.471Z,8.00
2018-03-22T17:38:21.472Z,9.63
2018-03-22T17:40:49.417Z,12.70
2018-03-22T17:43:17.368Z,17.33
2018-03-22T17:45:45.294Z,12.10
2018-03-22T17:48:13.256Z,14.10
2018-03-22T17:50:41.199Z,11.73
2018-03-22T17:53:09.114Z,15.40
2018-03-22T17:55:37.024Z,15.37
2018-03-22T17:58:04.931Z,16.00
2018-03-22T18:00:32.858Z,16.30
2018-03-22T18:03:00.784Z,15.60
2018-03-22T18:05:28.703Z,21.03
2018-03-22T18:07:56.607Z,19.50
2018-03-22T18:10:24.508Z,28.53
2018-03-22T18:12:52.427Z,21.97
2018-03-22T18:15:20.355Z,17.97
2018-03-22T18:17:48.300Z,21.07
2018-03-22T18:20:16.211Z,18.43
2018-03-22T18:22:44.164Z,18.50
2018-03-22T18:25:12.071Z,20.13
2018-03-22T18:27:40.015Z,21.50
2018-03-22T18:30:07.956Z,22.00
2018-03-22T18:32:35.883Z,21.93
2018-03-22T18:35:03.807Z,22.30
2018-03-22T18:37:31.895Z,22.30
2018-03-22T18:40:00.015Z,27.13
2018-03-22T18:42:27.953Z,24.80
2018-03-22T18:44:55.892Z,18.83
2018-03-22T18:47:23.836Z,24.57
2018-03-22T18:49:51.739Z,25.07
2018-03-22T18:52:19.667Z,27.27
2018-03-22T18:57:27.667Z,22.03
2018-03-22T18:59:55.752Z,23.20
2018-03-22T19:02:23.703Z,26.03
2018-03-22T19:04:51.624Z,21.50
2018-03-22T19:07:19.558Z,25.90
2018-03-22T19:09:47.423Z,24.90
2018-03-22T19:12:15.341Z,25.73
2018-03-22T19:14:43.542Z,26.30
2018-03-22T19:17:11.460Z,26.63
2018-03-22T19:19:39.368Z,19.80
2018-03-22T19:22:07.611Z,25.05
2018-03-22T19:24:35.507Z,21.47
2018-03-22T19:27:03.440Z,24.50
2018-03-22T19:29:31.365Z,23.87
2018-03-22T19:31:59.267Z,25.00
2018-03-22T19:34:27.198Z,21.98
2018-03-22T19:36:55.118Z,27.60
2018-03-22T19:39:23.032Z,21.50
2018-03-22T19:41:51.232Z,25.20
2018-03-22T19:44:19.213Z,19.37
2018-03-22T19:46:47.103Z,18.70
2018-03-22T19:49:15.035Z,22.95
2018-03-22T19:51:43.209Z,24.10
2018-03-22T19:54:11.129Z,29.83
2018-03-22T19:56:39.028Z,22.00
2018-03-22T19:59:06.939Z,25.05
2018-03-22T20:01:34.879Z,23.77
2018-03-22T20:04:02.978Z,24.25
2018-03-22T20:06:30.948Z,26.92
2018-03-22T20:08:58.846Z,28.87
2018-03-22T20:11:26.763Z,21.30
2018-03-22T20:13:54.723Z,22.00
2018-03-22T20:16:22.635Z,28.50
2018-03-22T20:18:50.844Z,24.43
2018-03-22T20:21:18.797Z,23.38
2018-03-22T20:23:46.731Z,23.90
2018-03-22T20:26:14.914Z,27.07
2018-03-22T20:28:42.788Z,28.40
2018-03-22T20:31:10.707Z,21.40
2018-03-22T20:33:38.646Z,20.80
2018-03-22T20:36:06.549Z,20.17
2018-03-22T20:38:34.775Z,23.00
2018-03-22T20:41:02.717Z,19.62
2018-03-22T20:43:30.916Z,18.37
2018-03-22T20:45:58.919Z,26.58
2018-03-22T20:48:26.771Z,18.13
2018-03-22T20:50:54.731Z,16.33
2018-03-22T20:53:22.630Z,23.90
2018-03-22T20:55:50.523Z,18.43
2018-03-22T20:58:18.554Z,17.10
2018-03-22T21:00:46.423Z,14.00
2018-03-22T21:03:14.336Z,16.20
2018-03-22T21:05:42.267Z,13.95
2018-03-22T21:08:10.205Z,14.77
2018-03-22T21:10:38.104Z,13.23
2018-03-22T21:13:06.359Z,11.73
2018-03-22T21:15:34.295Z,12.18
2018-03-22T21:18:02.211Z,13.40
2018-03-22T21:20:30.129Z,16.98
2018-03-22T21:22:58.031Z,11.07
2018-03-22T21:25:25.962Z,16.42
2018-03-22T21:27:53.864Z,12.85
2018-03-22T21:30:21.787Z,13.13
2018-03-22T21:32:49.939Z,13.55
2018-03-22T21:35:17.851Z,12.27
2018-03-22T21:37:45.799Z,10.13
2018-03-22T21:40:13.748Z,13.27
2018-03-22T21:42:41.680Z,10.75
2018-03-22T21:45:09.847Z,11.30
2018-03-22T21:47:38.089Z,17.40
2018-03-22T21:50:06.012Z,15.13
2018-03-22T21:52:39.955Z,12.00
2018-03-22T21:55:07.868Z,13.27
2018-03-22T21:57:35.800Z,14.75
2018-03-22T22:00:03.719Z,13.25
2018-03-22T22:02:31.676Z,16.02
2018-03-22T22:04:59.635Z,15.10
2018-03-22T22:07:27.527Z,10.82
2018-03-22T22:09:55.500Z,13.53
2018-03-22T22:12:23.452Z,14.05
2018-03-22T22:14:51.359Z,12.15
2018-03-22T22:17:19.291Z,9.82
2018-03-22T22:19:47.216Z,10.63
2018-03-22T22:22:15.389Z,15.02
2018-03-22T22:24:43.330Z,10.90
2018-03-22T22:27:11.267Z,11.77
2018-03-22T22:29:39.971Z,7.97
2018-03-22T22:32:07.884Z,14.30
2018-03-22T22:34:35.788Z,13.43
2018-03-22T22:37:03.715Z,9.57
2018-03-22T22:39:31.636Z,12.00
2018-03-22T22:41:59.556Z,9.35
2018-03-22T22:44:27.477Z,7.18
2018-03-22T22:46:55.750Z,7.57
2018-03-22T22:49:23.703Z,11.85
2018-03-22T22:51:51.618Z,8.85
2018-03-22T22:54:19.527Z,9.32
2018-03-22T22:56:47.471Z,13.75
2018-03-22T22:59:15.355Z,8.65
2018-03-22T23:01:43.260Z,8.18
2018-03-22T23:04:11.199Z,9.50
2018-03-22T23:06:39.097Z,13.13
2018-03-22T23:09:07.284Z,10.07
2018-03-22T23:11:35.207Z,9.25
2018-03-22T23:14:03.111Z,7.50
2018-03-22T23:16:31.060Z,8.95
2018-03-22T23:18:59.166Z,12.53
2018-03-22T23:21:27.067Z,7.40
2018-03-22T23:23:54.984Z,7.90
2018-03-22T23:26:23.200Z,8.10
2018-03-22T23:28:51.110Z,6.93
2018-03-22T23:31:19.028Z,6.37
2018-03-22T23:33:46.959Z,7.10
2018-03-22T23:36:14.907Z,6.93
2018-03-22T23:38:42.830Z,7.72
2018-03-22T23:41:11.005Z,6.50
2018-03-22T23:43:38.915Z,5.32
2018-03-22T23:46:06.835Z,5.45
2018-03-22T23:48:34.945Z,4.60
2018-03-22T23:51:02.867Z,5.05
2018-03-22T23:53:30.804Z,6.15
2018-03-22T23:55:58.754Z,6.00
2018-03-22T23:58:26.846Z,4.68
